createdAt,value
2022-07-29T00:04:17.085Z,20.01
2022-07-29T00:09:21.246Z,20.03
2022-07-29T00:14:23.781Z,20.26
2022-07-29T00:19:26.366Z,20.42
2022-07-29T00:24:30.753Z,20.35
2022-07-29T00:29:34.718Z,20.03
2022-07-29T00:35:03.626Z,20.38
2022-07-29T00:40:09.435Z,20.15
2022-07-29T00:45:12.804Z,19.93
2022-07-29T00:50:15.905Z,20.03
2022-07-29T00:55:19.873Z,20.24
2022-07-29T01:00:25.541Z,20.21
2022-07-29T01:05:49.900Z,19.57
2022-07-29T01:10:55.111Z,19.01
2022-07-29T01:16:03.747Z,19.84
2022-07-29T01:21:29.510Z,19.79
2022-07-29T01:26:47.743Z,19.55
2022-07-29T01:32:00.640Z,19.27
2022-07-29T01:37:10.272Z,19.61
2022-07-29T01:42:17.620Z,19.78
2022-07-29T01:47:25.334Z,18.85
2022-07-29T01:52:33.444Z,19.03
2022-07-29T01:57:38.273Z,19.15
2022-07-29T02:02:44.560Z,19.74
2022-07-29T02:07:49.997Z,19.61
2022-07-29T02:12:52.570Z,19.15
2022-07-29T02:18:00.393Z,19.64
2022-07-29T02:23:04.238Z,19.76
2022-07-29T02:28:08.103Z,19.52
2022-07-29T02:33:16.157Z,19.62
2022-07-29T02:38:37.313Z,19.47
2022-07-29T02:43:42.505Z,19.27
2022-07-29T02:48:57.719Z,19.58
2022-07-29T02:54:07.775Z,19.43
2022-07-29T02:59:15.782Z,19.53
2022-07-29T03:04:21.378Z,19.47
2022-07-29T03:09:26.118Z,19.29
2022-07-29T03:14:29.342Z,19.19
2022-07-29T03:19:33.818Z,19.14
2022-07-29T03:24:37.748Z,19.26
2022-07-29T03:29:40.334Z,19.24
2022-07-29T03:34:47.711Z,19.16
2022-07-29T03:39:52.936Z,18.57
2022-07-29T03:44:57.662Z,18.46
2022-07-29T03:50:06.945Z,18.87
2022-07-29T03:55:14.125Z,19.17
2022-07-29T04:00:17.568Z,19.25
2022-07-29T04:05:21.562Z,19.18
2022-07-29T04:10:26.349Z,19.37
2022-07-29T04:15:34.386Z,19.55
2022-07-29T04:20:38.317Z,19.47
2022-07-29T04:25:41.583Z,19.67
2022-07-29T04:30:44.136Z,19.72
2022-07-29T04:35:50.466Z,19.86
2022-07-29T04:40:55.119Z,19.62
2022-07-29T04:45:58.889Z,19.77
2022-07-29T04:51:02.728Z,19.88
2022-07-29T04:56:05.741Z,19.76
2022-07-29T05:01:08.276Z,19.46
2022-07-29T05:06:12.208Z,19.89
2022-07-29T05:11:19.373Z,19.89
2022-07-29T05:16:24.010Z,19.36
2022-07-29T05:21:27.907Z,19.42
2022-07-29T05:26:30.509Z,19.71
2022-07-29T05:31:34.438Z,19.40
2022-07-29T05:36:38.235Z,19.92
2022-07-29T05:41:41.157Z,20.23
2022-07-29T05:46:43.698Z,20.12
2022-07-29T05:51:48.762Z,20.40
2022-07-29T05:56:51.287Z,20.05
2022-07-29T06:01:53.834Z,20.06
2022-07-29T06:06:57.714Z,19.73
2022-07-29T06:12:00.251Z,19.95
2022-07-29T06:17:02.851Z,20.56
2022-07-29T06:22:06.784Z,20.56
2022-07-29T06:27:09.624Z,20.23
2022-07-29T06:32:12.208Z,20.76
2022-07-29T06:37:16.144Z,20.11
2022-07-29T06:42:18.682Z,20.55
2022-07-29T06:47:21.115Z,20.15
2022-07-29T06:52:26.623Z,20.48
2022-07-29T06:57:29.585Z,20.75
2022-07-29T07:02:32.201Z,20.76
2022-07-29T07:07:36.345Z,20.87
2022-07-29T07:12:39.096Z,20.90
2022-07-29T07:17:41.628Z,20.90
2022-07-29T07:22:45.896Z,20.99
2022-07-29T07:27:48.796Z,21.02
2022-07-29T07:32:51.428Z,21.87
2022-07-29T07:37:55.928Z,21.64
2022-07-29T07:42:58.460Z,22.09
2022-07-29T07:48:01.189Z,22.42
2022-07-29T07:53:05.084Z,22.59
2022-07-29T07:58:07.518Z,23.17
2022-07-29T08:03:17.162Z,23.44
2022-07-29T08:08:21.195Z,23.43
2022-07-29T08:13:24.855Z,23.53
2022-07-29T08:18:28.413Z,23.52
2022-07-29T08:23:47.115Z,23.36
2022-07-29T08:28:52.054Z,23.47
2022-07-29T08:33:54.810Z,23.85
2022-07-29T08:38:58.779Z,24.17
2022-07-29T08:44:01.308Z,24.02
2022-07-29T08:49:04.161Z,24.33
2022-07-29T08:54:09.855Z,23.92
2022-07-29T08:59:13.259Z,24.70
2022-07-29T09:04:19.106Z,24.52
2022-07-29T09:09:23.700Z,24.21
2022-07-29T09:14:26.223Z,24.79
2022-07-29T09:19:32.343Z,25.21
2022-07-29T09:24:43.872Z,25.55
2022-07-29T09:29:48.706Z,25.32
2022-07-29T09:34:52.858Z,26.25
2022-07-29T09:39:59.500Z,26.24
2022-07-29T09:45:02.089Z,26.54
2022-07-29T09:50:04.945Z,26.53
2022-07-29T09:55:10.248Z,26.50
2022-07-29T10:00:20.174Z,26.83
2022-07-29T10:05:24.835Z,27.53
2022-07-29T10:10:30.559Z,27.17
2022-07-29T10:15:38.194Z,27.66
2022-07-29T10:20:41.803Z,27.70
2022-07-29T10:25:47.379Z,27.95
2022-07-29T10:30:53.487Z,27.34
2022-07-29T10:36:07.010Z,28.48
2022-07-29T10:41:32.424Z,29.75
2022-07-29T10:46:46.949Z,29.66
2022-07-29T10:51:58.560Z,31.04
2022-07-29T10:57:16.241Z,32.73
2022-07-29T11:02:45.072Z,29.52
2022-07-29T11:08:33.819Z,33.11
2022-07-29T11:13:55.984Z,32.94
2022-07-29T11:19:30.061Z,32.68
2022-07-29T11:24:35.146Z,31.62
2022-07-29T11:29:41.385Z,34.00
2022-07-29T11:34:46.017Z,33.50
2022-07-29T11:40:09.914Z,32.57
2022-07-29T11:45:43.266Z,32.14
2022-07-29T11:50:44.423Z,30.91
2022-07-29T11:55:51.663Z,29.88
2022-07-29T12:00:56.418Z,29.74
2022-07-29T12:05:59.142Z,29.83
2022-07-29T12:11:03.266Z,30.24
2022-07-29T12:16:07.680Z,30.95
2022-07-29T12:21:12.431Z,30.05
2022-07-29T12:26:25.301Z,29.57
2022-07-29T12:31:43.236Z,30.82
2022-07-29T12:36:48.020Z,31.08
2022-07-29T12:41:50.629Z,31.26
2022-07-29T12:47:04.927Z,31.75
2022-07-29T12:52:25.385Z,31.09
2022-07-29T12:57:29.236Z,31.17
2022-07-29T13:02:33.125Z,30.87
2022-07-29T13:07:53.999Z,30.44
2022-07-29T13:13:06.641Z,28.97
2022-07-29T13:18:31.998Z,27.98
2022-07-29T13:23:38.337Z,27.94
2022-07-29T13:28:44.067Z,27.69
2022-07-29T13:33:48.799Z,27.76
2022-07-29T13:38:51.425Z,28.56
2022-07-29T13:43:54.319Z,28.48
2022-07-29T13:48:58.240Z,28.33
2022-07-29T13:54:00.853Z,28.59
2022-07-29T13:59:03.342Z,28.55
2022-07-29T14:04:07.233Z,28.11
2022-07-29T14:09:09.960Z,28.36
2022-07-29T14:14:12.439Z,29.14
2022-07-29T14:19:16.264Z,29.49
2022-07-29T14:24:23.102Z,29.24
2022-07-29T14:29:37.497Z,29.37
2022-07-29T14:34:42.388Z,29.44
2022-07-29T14:39:50.905Z,29.76
2022-07-29T14:44:53.463Z,30.37
2022-07-29T14:49:57.325Z,30.40
2022-07-29T14:54:59.858Z,30.47
2022-07-29T15:00:02.709Z,30.22
2022-07-29T15:05:08.035Z,29.92
2022-07-29T15:10:10.984Z,30.56
2022-07-29T15:15:17.215Z,30.27
2022-07-29T15:20:22.148Z,30.78
2022-07-29T15:25:24.817Z,30.63
2022-07-29T15:30:33.376Z,30.06
2022-07-29T15:35:40.285Z,30.41
2022-07-29T15:40:44.494Z,30.03
2022-07-29T15:46:07.212Z,29.96
2022-07-29T15:51:11.091Z,30.44
2022-07-29T15:56:13.612Z,30.18
2022-07-29T16:01:16.323Z,29.49
2022-07-29T16:06:20.278Z,28.07
2022-07-29T16:11:22.842Z,28.15
2022-07-29T16:16:25.385Z,27.51
2022-07-29T16:21:29.474Z,27.87
2022-07-29T16:26:31.985Z,27.53
2022-07-29T16:31:34.543Z,27.51
2022-07-29T16:36:38.462Z,27.52
2022-07-29T16:41:41.029Z,26.83
2022-07-29T16:46:45.066Z,27.52
2022-07-29T16:51:48.895Z,26.67
2022-07-29T16:56:51.913Z,26.71
2022-07-29T17:01:54.437Z,27.22
2022-07-29T17:06:59.971Z,27.22
2022-07-29T17:12:03.592Z,26.66
2022-07-29T17:17:13.823Z,26.33
2022-07-29T17:22:20.634Z,26.75
2022-07-29T17:27:23.151Z,26.72
2022-07-29T17:32:25.822Z,26.72
2022-07-29T17:37:29.759Z,26.90
2022-07-29T17:42:32.239Z,26.68
2022-07-29T17:47:34.816Z,26.51
2022-07-29T17:52:39.309Z,27.18
2022-07-29T17:57:41.886Z,27.11
2022-07-29T18:02:44.421Z,27.35
2022-07-29T18:07:48.314Z,27.31
2022-07-29T18:12:50.843Z,26.60
2022-07-29T18:17:57.811Z,26.06
2022-07-29T18:23:02.503Z,26.18
2022-07-29T18:28:06.452Z,26.60
2022-07-29T18:33:21.668Z,26.29
2022-07-29T18:38:26.166Z,26.51
2022-07-29T18:43:28.691Z,26.75
2022-07-29T18:48:32.730Z,26.40
2022-07-29T18:53:36.911Z,26.61
2022-07-29T18:58:39.598Z,26.55
2022-07-29T19:03:42.071Z,26.02
2022-07-29T19:08:45.897Z,25.61
2022-07-29T19:13:48.419Z,25.84
2022-07-29T19:18:50.879Z,26.45
2022-07-29T19:24:01.759Z,26.52
2022-07-29T19:29:10.147Z,26.54
2022-07-29T19:34:13.119Z,26.49
2022-07-29T19:39:16.962Z,26.35
2022-07-29T19:44:19.538Z,26.35
2022-07-29T19:49:22.079Z,26.17
2022-07-29T19:54:26.841Z,25.77
2022-07-29T19:59:29.615Z,23.57
2022-07-29T20:04:32.228Z,23.52
2022-07-29T20:09:36.911Z,23.87
2022-07-29T20:14:39.356Z,24.62
2022-07-29T20:19:42.697Z,24.76
2022-07-29T20:24:46.813Z,25.06
2022-07-29T20:29:49.339Z,24.87
2022-07-29T20:34:51.836Z,24.37
2022-07-29T20:39:55.898Z,24.86
2022-07-29T20:44:58.732Z,25.08
2022-07-29T20:50:01.212Z,24.64
2022-07-29T20:55:05.808Z,24.48
2022-07-29T21:00:09.802Z,24.40
2022-07-29T21:05:12.324Z,24.40
2022-07-29T21:10:18.254Z,24.35
2022-07-29T21:15:21.774Z,24.20
2022-07-29T21:20:24.278Z,23.85
2022-07-29T21:25:28.213Z,24.08
2022-07-29T21:30:30.845Z,22.83
2022-07-29T21:36:06.646Z,22.39
2022-07-29T21:40:58.158Z,22.27
2022-07-29T21:46:01.918Z,22.44
2022-07-29T21:51:06.007Z,22.76
2022-07-29T21:56:14.421Z,22.65
2022-07-29T22:01:17.662Z,22.51
2022-07-29T22:06:20.164Z,22.64
2022-07-29T22:11:23.967Z,22.20
2022-07-29T22:16:26.557Z,22.28
2022-07-29T22:21:29.138Z,21.90
2022-07-29T22:26:33.321Z,21.56
2022-07-29T22:31:35.784Z,21.28
2022-07-29T22:36:38.331Z,21.31
2022-07-29T22:41:42.224Z,20.80
2022-07-29T22:46:44.825Z,20.90
2022-07-29T22:51:47.426Z,20.94
2022-07-29T22:56:51.225Z,20.23
2022-07-29T23:01:53.710Z,20.17
2022-07-29T23:06:56.232Z,20.20
2022-07-29T23:12:00.293Z,20.35
2022-07-29T23:17:03.129Z,19.68
2022-07-29T23:22:06.776Z,20.51
2022-07-29T23:27:10.561Z,20.86
2022-07-29T23:32:13.064Z,21.19
2022-07-29T23:37:15.660Z,21.31
2022-07-29T23:42:19.550Z,20.23
2022-07-29T23:47:22.034Z,20.05
2022-07-29T23:52:27.677Z,19.79
2022-07-29T23:57:32.957Z,20.02
